createdAt,value
2018-05-18T00:01:45.505Z,33.08
2018-05-18T00:04:18.064Z,40.07
2018-05-18T00:06:50.602Z,26.20
2018-05-18T00:09:23.138Z,36.20
2018-05-18T00:11:55.645Z,31.63
2018-05-18T00:14:28.170Z,34.90
2018-05-18T00:17:00.694Z,39.70
2018-05-18T00:19:33.222Z,36.13
2018-05-18T00:22:06.258Z,35.42
2018-05-18T00:24:38.839Z,36.67
2018-05-18T00:27:11.372Z,30.83
2018-05-18T00:29:43.909Z,34.20
2018-05-18T00:32:16.433Z,31.25
2018-05-18T00:34:48.985Z,32.40
2018-05-18T00:37:21.515Z,41.73
2018-05-18T00:39:54.063Z,40.23
2018-05-18T00:42:26.565Z,35.33
2018-05-18T00:44:59.169Z,27.83
2018-05-18T00:47:31.675Z,32.77
2018-05-18T00:50:04.224Z,37.33
2018-05-18T00:52:36.770Z,33.50
2018-05-18T00:55:21.048Z,28.33
2018-05-18T00:57:53.556Z,31.97
2018-05-18T01:00:26.098Z,40.13
2018-05-18T01:02:58.624Z,36.20
2018-05-18T01:05:31.154Z,34.03
2018-05-18T01:08:03.668Z,34.63
2018-05-18T01:10:36.223Z,50.73
2018-05-18T01:13:08.788Z,36.30
2018-05-18T01:15:41.531Z,44.17
2018-05-18T01:18:14.052Z,36.27
2018-05-18T01:20:46.593Z,43.53
2018-05-18T01:23:19.115Z,35.00
2018-05-18T01:25:52.067Z,41.03
2018-05-18T01:28:24.587Z,40.47
2018-05-18T01:30:57.118Z,33.47
2018-05-18T01:33:29.634Z,37.40
2018-05-18T01:36:02.165Z,34.80
2018-05-18T01:38:34.693Z,33.53
2018-05-18T01:41:07.969Z,34.33
2018-05-18T01:43:40.516Z,41.13
2018-05-18T01:46:13.029Z,27.40
2018-05-18T01:48:45.575Z,31.83
2018-05-18T01:51:18.082Z,38.67
2018-05-18T01:53:50.624Z,41.23
2018-05-18T01:56:23.143Z,38.33
2018-05-18T01:58:55.668Z,34.17
2018-05-18T02:01:28.179Z,24.77
2018-05-18T02:04:00.706Z,40.30
2018-05-18T02:06:33.229Z,30.87
2018-05-18T02:09:06.649Z,35.80
2018-05-18T02:11:39.213Z,20.93
2018-05-18T02:14:11.757Z,45.47
2018-05-18T02:16:44.316Z,36.13
2018-05-18T02:19:16.871Z,28.90
2018-05-18T02:21:49.372Z,28.17
2018-05-18T02:24:21.900Z,41.97
2018-05-18T02:26:54.415Z,35.70
2018-05-18T02:29:26.952Z,40.27
2018-05-18T02:31:59.467Z,39.33
2018-05-18T02:34:31.997Z,47.27
2018-05-18T02:37:04.522Z,31.70
2018-05-18T02:39:37.512Z,36.90
2018-05-18T02:42:10.043Z,45.07
2018-05-18T02:44:42.602Z,33.00
2018-05-18T02:47:20.684Z,36.43
2018-05-18T02:49:53.235Z,31.60
2018-05-18T02:52:25.810Z,34.93
2018-05-18T02:54:58.307Z,37.13
2018-05-18T02:57:30.818Z,37.87
2018-05-18T03:00:03.352Z,47.57
2018-05-18T03:02:36.859Z,30.83
2018-05-18T03:05:09.415Z,35.13
2018-05-18T03:07:42.173Z,36.87
2018-05-18T03:10:14.719Z,50.77
2018-05-18T03:12:47.223Z,35.77
2018-05-18T03:15:19.776Z,45.47
2018-05-18T03:17:52.293Z,45.00
2018-05-18T03:20:24.833Z,37.47
2018-05-18T03:22:57.348Z,33.33
2018-05-18T03:25:29.890Z,34.70
2018-05-18T03:28:02.412Z,38.27
2018-05-18T03:30:35.648Z,38.80
2018-05-18T03:33:08.398Z,49.97
2018-05-18T03:35:40.985Z,38.97
2018-05-18T03:38:13.513Z,38.47
2018-05-18T03:40:46.073Z,37.33
2018-05-18T03:43:18.586Z,31.87
2018-05-18T03:45:51.127Z,32.63
2018-05-18T03:48:23.633Z,38.20
2018-05-18T03:50:56.178Z,31.03
2018-05-18T03:53:28.705Z,34.17
2018-05-18T03:56:01.240Z,37.23
2018-05-18T03:58:33.758Z,32.93
2018-05-18T04:01:06.673Z,30.37
2018-05-18T04:03:51.263Z,40.60
2018-05-18T04:06:37.001Z,36.47
2018-05-18T04:09:09.546Z,42.40
2018-05-18T04:11:42.087Z,36.80
2018-05-18T04:14:14.625Z,37.17
2018-05-18T04:16:47.170Z,39.80
2018-05-18T04:19:19.684Z,34.73
2018-05-18T04:21:52.212Z,39.30
2018-05-18T04:24:24.723Z,37.73
2018-05-18T04:26:57.259Z,34.90
2018-05-18T04:29:29.778Z,34.00
2018-05-18T04:32:02.328Z,35.17
2018-05-18T04:34:36.716Z,32.27
2018-05-18T04:37:09.248Z,35.00
2018-05-18T04:39:41.825Z,42.73
2018-05-18T04:42:14.369Z,33.43
2018-05-18T04:44:46.958Z,32.60
2018-05-18T04:47:19.494Z,32.07
2018-05-18T04:49:51.998Z,35.43
2018-05-18T04:52:24.546Z,40.37
2018-05-18T04:54:57.110Z,38.87
2018-05-18T04:57:29.611Z,33.57
2018-05-18T05:00:02.145Z,35.53
2018-05-18T05:02:34.650Z,33.23
2018-05-18T05:05:07.870Z,36.50
2018-05-18T05:07:40.388Z,33.00
2018-05-18T05:10:12.932Z,34.53
2018-05-18T05:12:45.459Z,37.60
2018-05-18T05:15:17.984Z,35.57
2018-05-18T05:17:50.540Z,33.97
2018-05-18T05:20:23.045Z,29.97
2018-05-18T05:22:55.556Z,43.40
2018-05-18T05:25:28.084Z,39.33
2018-05-18T05:28:00.606Z,33.13
2018-05-18T05:30:33.225Z,30.47
2018-05-18T05:33:06.566Z,38.00
2018-05-18T05:35:39.103Z,33.50
2018-05-18T05:38:11.654Z,38.17
2018-05-18T05:40:44.297Z,42.40
2018-05-18T05:43:16.869Z,36.73
2018-05-18T05:45:49.408Z,30.40
2018-05-18T05:48:21.933Z,33.53
2018-05-18T05:50:54.449Z,31.77
2018-05-18T05:53:26.963Z,32.03
2018-05-18T05:55:59.507Z,41.57
2018-05-18T05:58:32.107Z,36.47
2018-05-18T06:01:04.650Z,44.30
2018-05-18T06:03:37.486Z,32.97
2018-05-18T06:06:10.075Z,35.93
2018-05-18T06:08:42.628Z,31.47
2018-05-18T06:11:15.282Z,35.93
2018-05-18T06:16:26.774Z,25.13
2018-05-18T06:18:59.287Z,38.63
2018-05-18T06:21:31.820Z,41.60
2018-05-18T06:24:04.338Z,39.73
2018-05-18T06:26:37.520Z,45.28
2018-05-18T06:29:10.043Z,37.80
2018-05-18T06:31:42.603Z,40.80
2018-05-18T06:34:15.564Z,38.27
2018-05-18T06:36:48.085Z,34.77
2018-05-18T06:39:20.593Z,30.83
2018-05-18T06:41:53.117Z,29.70
2018-05-18T06:44:25.625Z,38.23
2018-05-18T06:46:58.178Z,34.77
2018-05-18T06:49:30.714Z,29.80
2018-05-18T06:52:03.233Z,35.03
2018-05-18T06:54:36.031Z,37.77
2018-05-18T06:57:08.597Z,34.03
2018-05-18T06:59:41.116Z,31.50
2018-05-18T07:02:13.677Z,36.63
2018-05-18T07:04:46.222Z,31.70
2018-05-18T07:07:18.745Z,36.30
2018-05-18T07:09:51.255Z,36.97
2018-05-18T07:12:23.786Z,25.07
2018-05-18T07:14:56.293Z,30.43
2018-05-18T07:17:28.833Z,31.20
2018-05-18T07:20:01.356Z,30.77
2018-05-18T07:22:33.886Z,30.10
2018-05-18T07:25:08.005Z,28.57
2018-05-18T07:27:40.563Z,33.70
2018-05-18T07:30:13.098Z,34.03
2018-05-18T07:32:45.658Z,33.42
2018-05-18T07:35:18.193Z,32.50
2018-05-18T07:37:50.725Z,34.83
2018-05-18T07:40:23.241Z,25.80
2018-05-18T07:42:55.795Z,29.27
2018-05-18T07:45:28.308Z,29.60
2018-05-18T07:48:00.838Z,37.03
2018-05-18T07:50:33.352Z,30.40
2018-05-18T07:53:07.091Z,31.10
2018-05-18T07:55:39.621Z,30.90
2018-05-18T07:58:12.266Z,37.10
2018-05-18T08:00:44.971Z,29.12
2018-05-18T08:03:17.520Z,36.28
2018-05-18T08:05:50.133Z,28.52
2018-05-18T08:08:22.649Z,38.28
2018-05-18T08:10:55.179Z,30.80
2018-05-18T08:13:27.689Z,35.35
2018-05-18T08:16:00.363Z,32.33
2018-05-18T08:18:32.888Z,26.48
2018-05-18T08:21:06.913Z,29.00
2018-05-18T08:23:41.389Z,32.92
2018-05-18T08:26:13.933Z,27.52
2018-05-18T08:28:58.242Z,28.30
2018-05-18T08:31:30.777Z,38.70
2018-05-18T08:34:03.371Z,30.70
2018-05-18T08:36:36.179Z,26.58
2018-05-18T08:39:08.903Z,27.67
2018-05-18T08:41:41.392Z,33.80
2018-05-18T08:44:13.897Z,35.55
2018-05-18T08:46:46.430Z,25.08
2018-05-18T08:49:18.936Z,29.30
2018-05-18T08:51:51.470Z,21.33
2018-05-18T08:54:23.984Z,21.55
2018-05-18T08:56:56.530Z,21.50
2018-05-18T08:59:29.037Z,25.60
2018-05-18T09:02:01.607Z,29.48
2018-05-18T09:04:34.132Z,33.75
2018-05-18T09:07:06.814Z,32.00
2018-05-18T09:09:39.343Z,27.95
2018-05-18T09:12:11.889Z,28.85
2018-05-18T09:14:44.408Z,24.20
2018-05-18T09:17:16.941Z,35.83
2018-05-18T09:19:49.461Z,37.92
2018-05-18T09:22:21.990Z,29.42
2018-05-18T09:24:54.512Z,33.97
2018-05-18T09:27:27.053Z,28.10
2018-05-18T09:29:59.574Z,24.05
2018-05-18T09:32:32.092Z,28.23
2018-05-18T09:35:04.648Z,30.08
2018-05-18T09:37:37.425Z,23.35
2018-05-18T09:40:10.259Z,23.48
2018-05-18T09:42:42.783Z,20.52
2018-05-18T09:45:15.371Z,23.55
2018-05-18T09:47:47.835Z,23.00
2018-05-18T09:50:20.346Z,29.80
2018-05-18T09:52:52.877Z,25.55
2018-05-18T09:55:25.440Z,25.12
2018-05-18T09:57:57.936Z,23.33
2018-05-18T10:00:30.456Z,24.73
2018-05-18T10:03:02.980Z,22.35
2018-05-18T10:05:35.805Z,23.92
2018-05-18T10:08:08.377Z,26.10
2018-05-18T10:10:40.892Z,25.85
2018-05-18T10:13:13.425Z,25.62
2018-05-18T10:15:45.934Z,23.15
2018-05-18T10:18:18.541Z,25.80
2018-05-18T10:20:50.997Z,23.65
2018-05-18T10:23:23.527Z,23.70
2018-05-18T10:25:56.040Z,28.65
2018-05-18T10:28:28.568Z,28.65
2018-05-18T10:31:01.095Z,26.12
2018-05-18T10:33:33.636Z,29.87
2018-05-18T10:36:06.180Z,27.48
2018-05-18T10:38:38.727Z,26.23
2018-05-18T10:41:11.252Z,25.98
2018-05-18T10:43:43.790Z,29.63
2018-05-18T10:46:16.298Z,21.17
2018-05-18T10:48:48.828Z,25.20
2018-05-18T10:51:21.339Z,27.58
2018-05-18T10:53:53.870Z,25.27
2018-05-18T10:56:26.381Z,24.10
2018-05-18T10:58:58.923Z,27.42
2018-05-18T11:01:31.447Z,24.98
2018-05-18T11:04:03.971Z,24.65
2018-05-18T11:06:36.597Z,27.13
2018-05-18T11:09:09.238Z,23.02
2018-05-18T11:11:42.083Z,25.00
2018-05-18T11:14:14.640Z,22.27
2018-05-18T11:16:47.095Z,28.30
2018-05-18T11:19:19.625Z,24.20
2018-05-18T11:21:52.138Z,26.98
2018-05-18T11:24:24.675Z,22.17
2018-05-18T11:26:57.225Z,22.90
2018-05-18T11:29:29.749Z,26.10
2018-05-18T11:32:02.280Z,21.50
2018-05-18T11:34:34.820Z,25.08
2018-05-18T11:37:07.466Z,19.20
2018-05-18T11:39:40.005Z,22.55
2018-05-18T11:42:12.545Z,20.08
2018-05-18T11:44:45.095Z,18.62
2018-05-18T11:47:17.687Z,23.70
2018-05-18T11:49:50.196Z,20.20
2018-05-18T11:52:22.732Z,25.15
2018-05-18T11:54:55.249Z,25.98
2018-05-18T11:57:27.969Z,25.20
2018-05-18T12:00:00.544Z,31.60
2018-05-18T12:02:33.318Z,26.83
2018-05-18T12:05:06.577Z,21.02
2018-05-18T12:07:39.200Z,21.98
2018-05-18T12:10:11.857Z,23.15
2018-05-18T12:12:44.395Z,19.58
2018-05-18T12:15:16.963Z,24.30
2018-05-18T12:17:49.550Z,20.75
2018-05-18T12:20:22.082Z,25.58
2018-05-18T12:22:54.613Z,25.75
2018-05-18T12:25:27.122Z,22.35
2018-05-18T12:27:59.649Z,18.87
2018-05-18T12:30:32.531Z,23.30
2018-05-18T12:33:05.189Z,25.67
2018-05-18T12:35:38.013Z,24.02
2018-05-18T12:38:10.743Z,24.02
2018-05-18T12:40:43.219Z,22.23
2018-05-18T12:43:15.751Z,28.17
2018-05-18T12:45:48.300Z,28.08
2018-05-18T12:48:20.825Z,24.02
2018-05-18T12:50:53.478Z,27.37
2018-05-18T12:53:26.007Z,22.62
2018-05-18T12:55:58.541Z,22.92
2018-05-18T12:58:31.065Z,25.15
2018-05-18T13:01:03.587Z,23.20
2018-05-18T13:03:36.159Z,22.33
2018-05-18T13:06:09.821Z,24.17
2018-05-18T13:08:42.883Z,37.05
2018-05-18T13:11:15.653Z,28.62
2018-05-18T13:13:48.243Z,19.90
2018-05-18T13:16:21.052Z,30.75
2018-05-18T13:18:53.634Z,26.90
2018-05-18T13:21:26.150Z,26.00
2018-05-18T13:23:58.677Z,29.98
2018-05-18T13:26:31.279Z,30.85
2018-05-18T13:29:03.826Z,25.65
2018-05-18T13:31:36.691Z,21.73
2018-05-18T13:34:09.220Z,23.60
2018-05-18T13:36:41.745Z,26.62
2018-05-18T13:39:14.298Z,27.20
2018-05-18T13:41:46.813Z,24.90
2018-05-18T13:44:19.376Z,21.17
2018-05-18T13:46:51.899Z,23.30
2018-05-18T13:49:25.060Z,30.23
2018-05-18T13:51:57.597Z,20.48
2018-05-18T13:54:30.169Z,25.42
2018-05-18T13:57:02.770Z,24.23
2018-05-18T13:59:36.211Z,24.92
2018-05-18T14:02:08.736Z,21.25
2018-05-18T14:04:41.681Z,27.00
2018-05-18T14:07:14.188Z,25.37
2018-05-18T14:09:46.784Z,24.37
2018-05-18T14:12:19.308Z,23.92
2018-05-18T14:14:51.833Z,27.37
2018-05-18T14:17:24.349Z,26.40
2018-05-18T14:19:56.887Z,23.40
2018-05-18T14:22:29.393Z,24.20
2018-05-18T14:25:01.929Z,25.20
2018-05-18T14:27:34.478Z,23.75
2018-05-18T14:30:07.153Z,33.35
2018-05-18T14:32:39.828Z,22.35
2018-05-18T14:35:12.906Z,25.60
2018-05-18T14:37:45.470Z,29.90
2018-05-18T14:40:17.981Z,22.75
2018-05-18T14:42:50.527Z,20.00
2018-05-18T14:45:23.067Z,23.77
2018-05-18T14:47:55.580Z,24.35
2018-05-18T14:50:28.121Z,23.23
2018-05-18T14:53:00.645Z,26.85
2018-05-18T14:55:33.460Z,27.17
2018-05-18T14:58:06.729Z,34.08
2018-05-18T15:00:39.281Z,30.02
2018-05-18T15:03:12.030Z,25.62
2018-05-18T15:05:44.930Z,26.12
2018-05-18T15:08:17.653Z,22.35
2018-05-18T15:10:50.375Z,26.23
2018-05-18T15:13:22.857Z,27.60
2018-05-18T15:15:55.374Z,26.05
2018-05-18T15:18:27.904Z,24.65
2018-05-18T15:21:00.412Z,25.70
2018-05-18T15:23:32.963Z,28.40
2018-05-18T15:26:05.684Z,27.35
2018-05-18T15:28:38.723Z,29.73
2018-05-18T15:31:11.193Z,25.98
2018-05-18T15:33:44.049Z,24.98
2018-05-18T15:36:16.582Z,24.52
2018-05-18T15:38:49.113Z,26.52
2018-05-18T15:41:21.634Z,29.30
2018-05-18T15:43:54.169Z,31.23
2018-05-18T15:46:26.689Z,21.08
2018-05-18T15:48:59.218Z,25.12
2018-05-18T15:51:31.781Z,26.17
2018-05-18T15:54:04.337Z,27.95
2018-05-18T15:56:37.228Z,25.55
2018-05-18T15:59:09.784Z,27.27
2018-05-18T16:01:42.352Z,23.92
2018-05-18T16:04:14.902Z,29.63
2018-05-18T16:06:47.500Z,32.42
2018-05-18T16:09:20.047Z,25.98
2018-05-18T16:11:52.552Z,23.85
2018-05-18T16:14:25.129Z,27.52
2018-05-18T16:16:57.673Z,25.08
2018-05-18T16:19:30.214Z,23.08
2018-05-18T16:22:02.725Z,26.83
2018-05-18T16:24:35.291Z,19.77
2018-05-18T16:27:07.858Z,23.98
2018-05-18T16:29:40.501Z,23.17
2018-05-18T16:32:13.015Z,30.58
2018-05-18T16:34:45.549Z,24.98
2018-05-18T16:37:18.069Z,23.30
2018-05-18T16:39:50.593Z,25.73
2018-05-18T16:42:23.100Z,27.45
2018-05-18T16:44:55.621Z,25.70
2018-05-18T16:47:28.135Z,22.65
2018-05-18T16:50:00.668Z,25.60
2018-05-18T16:52:33.179Z,23.42
2018-05-18T16:55:05.805Z,25.85
2018-05-18T16:57:38.340Z,28.00
2018-05-18T17:00:10.939Z,28.48
2018-05-18T17:05:22.436Z,25.83
2018-05-18T17:07:54.937Z,29.20
2018-05-18T17:10:27.462Z,26.70
2018-05-18T17:12:59.977Z,26.10
2018-05-18T17:15:32.504Z,23.02
2018-05-18T17:18:05.045Z,28.35
2018-05-18T17:20:37.688Z,23.55
2018-05-18T17:23:10.356Z,26.45
2018-05-18T17:25:42.906Z,19.17
2018-05-18T17:28:15.414Z,33.55
2018-05-18T17:30:47.955Z,31.55
2018-05-18T17:33:20.461Z,22.80
2018-05-18T17:35:52.993Z,29.95
2018-05-18T17:38:25.498Z,19.80
2018-05-18T17:40:58.024Z,25.20
2018-05-18T17:43:30.528Z,18.85
2018-05-18T17:46:03.064Z,26.77
2018-05-18T17:48:35.600Z,22.15
2018-05-18T17:51:08.340Z,21.08
2018-05-18T17:53:40.873Z,20.90
2018-05-18T17:56:13.413Z,15.85
2018-05-18T17:58:45.913Z,22.33
2018-05-18T18:01:18.454Z,21.00
2018-05-18T18:03:51.218Z,15.95
2018-05-18T18:06:23.755Z,21.98
2018-05-18T18:08:56.284Z,19.25
2018-05-18T18:11:28.822Z,22.73
2018-05-18T18:14:01.356Z,23.60
2018-05-18T18:16:33.877Z,25.98
2018-05-18T18:19:07.272Z,23.15
2018-05-18T18:21:39.840Z,23.10
2018-05-18T18:24:12.430Z,28.48
2018-05-18T18:26:44.949Z,17.42
2018-05-18T18:29:17.489Z,23.20
2018-05-18T18:31:50.001Z,28.60
2018-05-18T18:34:22.535Z,23.50
2018-05-18T18:36:55.075Z,26.25
2018-05-18T18:39:27.606Z,28.20
2018-05-18T18:42:00.123Z,22.33
2018-05-18T18:44:32.676Z,25.33
2018-05-18T18:47:06.387Z,28.35
2018-05-18T18:49:38.959Z,21.90
2018-05-18T18:52:11.607Z,21.40
2018-05-18T18:54:44.034Z,23.85
2018-05-18T18:57:16.585Z,15.48
2018-05-18T18:59:49.120Z,20.23
2018-05-18T19:02:21.633Z,17.37
2018-05-18T19:04:54.173Z,22.50
2018-05-18T19:07:26.678Z,21.17
2018-05-18T19:09:59.215Z,19.90
2018-05-18T19:12:31.732Z,20.65
2018-05-18T19:15:04.329Z,28.73
2018-05-18T19:17:37.344Z,20.95
2018-05-18T19:20:09.910Z,19.45
2018-05-18T19:22:42.412Z,18.75
2018-05-18T19:25:14.954Z,19.77
2018-05-18T19:27:47.460Z,19.83
2018-05-18T19:30:19.993Z,22.17
2018-05-18T19:32:52.502Z,17.27
2018-05-18T19:35:25.025Z,20.98
2018-05-18T19:37:57.538Z,22.70
2018-05-18T19:40:30.076Z,26.00
2018-05-18T19:43:02.580Z,21.27
2018-05-18T19:45:35.175Z,24.92
2018-05-18T19:48:07.853Z,18.33
2018-05-18T19:50:40.489Z,17.67
2018-05-18T19:53:13.021Z,23.80
2018-05-18T19:55:45.542Z,23.02
2018-05-18T19:58:18.041Z,18.60
2018-05-18T20:00:50.572Z,18.77
2018-05-18T20:03:23.079Z,24.55
2018-05-18T20:05:55.606Z,19.02
2018-05-18T20:08:28.112Z,26.98
2018-05-18T20:11:00.647Z,20.42
2018-05-18T20:13:33.166Z,15.82
2018-05-18T20:16:05.700Z,18.77
2018-05-18T20:18:38.456Z,20.85
2018-05-18T20:21:11.014Z,17.00
2018-05-18T20:23:43.525Z,18.37
2018-05-18T20:26:16.052Z,18.70
2018-05-18T20:28:48.561Z,18.55
2018-05-18T20:31:21.093Z,23.42
2018-05-18T20:33:53.599Z,18.42
2018-05-18T20:36:26.135Z,20.90
2018-05-18T20:38:58.689Z,16.60
2018-05-18T20:41:31.221Z,16.48
2018-05-18T20:44:03.738Z,19.85
2018-05-18T20:46:36.289Z,13.68
2018-05-18T20:49:08.865Z,17.77
2018-05-18T20:51:41.434Z,21.25
2018-05-18T20:54:13.948Z,17.73
2018-05-18T20:56:46.476Z,16.95
2018-05-18T20:59:18.977Z,18.48
2018-05-18T21:01:51.500Z,18.37
2018-05-18T21:04:24.010Z,20.20
2018-05-18T21:06:56.533Z,19.08
2018-05-18T21:09:29.033Z,15.65
2018-05-18T21:12:01.606Z,23.85
2018-05-18T21:14:34.110Z,18.90
2018-05-18T21:17:07.144Z,19.77
2018-05-18T21:19:39.658Z,18.62
2018-05-18T21:22:12.180Z,14.80
2018-05-18T21:24:44.681Z,16.95
2018-05-18T21:27:17.205Z,19.65
2018-05-18T21:29:49.712Z,16.87
2018-05-18T21:32:22.256Z,19.62
2018-05-18T21:34:54.764Z,14.60
2018-05-18T21:37:27.295Z,16.73
2018-05-18T21:39:59.811Z,13.82
2018-05-18T21:42:32.347Z,17.35
2018-05-18T21:45:05.673Z,18.52
2018-05-18T21:47:38.245Z,13.15
2018-05-18T21:50:10.798Z,21.65
2018-05-18T21:52:43.425Z,19.10
2018-05-18T21:55:15.997Z,20.12
2018-05-18T21:57:48.515Z,18.60
2018-05-18T22:00:21.048Z,16.83
2018-05-18T22:02:53.552Z,16.67
2018-05-18T22:05:26.088Z,17.15
2018-05-18T22:07:58.590Z,13.52
2018-05-18T22:10:31.131Z,16.90
2018-05-18T22:13:03.643Z,17.10
2018-05-18T22:15:36.549Z,18.45
2018-05-18T22:18:09.108Z,18.90
2018-05-18T22:20:41.646Z,16.73
2018-05-18T22:23:14.194Z,16.45
2018-05-18T22:25:46.772Z,15.55
2018-05-18T22:28:19.289Z,18.77
2018-05-18T22:30:51.831Z,17.25
2018-05-18T22:33:24.356Z,16.23
2018-05-18T22:35:57.040Z,16.30
2018-05-18T22:38:29.516Z,13.57
2018-05-18T22:41:02.121Z,16.95
2018-05-18T22:43:35.185Z,14.87
2018-05-18T22:46:08.027Z,18.17
2018-05-18T22:48:40.597Z,17.33
2018-05-18T22:51:13.194Z,15.40
2018-05-18T22:53:45.763Z,13.80
2018-05-18T22:56:18.395Z,15.25
2018-05-18T22:58:50.954Z,19.58
2018-05-18T23:01:23.487Z,21.30
2018-05-18T23:03:55.998Z,20.52
2018-05-18T23:06:28.525Z,25.33
2018-05-18T23:09:01.051Z,17.20
2018-05-18T23:11:33.657Z,16.67
2018-05-18T23:14:06.443Z,17.87
2018-05-18T23:16:39.060Z,17.17
2018-05-18T23:19:11.585Z,17.85
2018-05-18T23:21:44.344Z,18.20
2018-05-18T23:24:16.849Z,17.52
2018-05-18T23:26:49.373Z,14.52
2018-05-18T23:29:21.868Z,19.42
2018-05-18T23:31:54.486Z,20.70
2018-05-18T23:34:26.948Z,19.55
2018-05-18T23:36:59.477Z,27.75
2018-05-18T23:39:32.038Z,14.82
2018-05-18T23:42:04.675Z,17.05
2018-05-18T23:44:38.292Z,16.80
2018-05-18T23:47:10.938Z,17.62
2018-05-18T23:49:43.493Z,15.80
2018-05-18T23:52:16.075Z,15.00
2018-05-18T23:54:48.616Z,19.15
2018-05-18T23:57:26.678Z,19.95
2018-05-18T23:59:59.194Z,14.77
